Flight Track Log - Related Links

Times and Time Zones

All times are in EDT time to prevent confusion due to time zone crossing. See the N352DS flight status page for this flight to view local times or setup timezone preferences in your user account.

Time Position Orientation Groundspeed Altitude Reporting Facility
EDT Latitude Longitude Course Direction KTS MPH feet Rate Location/Type
Mon 01:06:10 PM 40.7000 -74.5000 66° East 143 165 5,600  Level New York TRACON
Mon 01:07:04 PM 40.7167 -74.4500 66° East 141 162 5,600  Level New York TRACON
Mon 01:08:04 PM 40.7167 -74.4000 90° East 134 154 5,600  Level New York TRACON
Mon 01:09:04 PM 40.7333 -74.3667 57° Northeast 133 153 5,600 -50 Level New York TRACON
Mon 01:10:04 PM 40.7333 -74.3167 90° East 139 160 5,500 -53 Descending New York TRACON
Mon 01:10:58 PM 40.7500 -74.2667 66° East 135 155 5,500  Level New York TRACON
Mon 01:12:04 PM 40.7667 -74.2167 66° East 129 148 5,500  Level New York TRACON
Mon 01:12:58 PM 40.7667 -74.1833 90° East 127 146 5,500  Level New York TRACON
Mon 01:14:04 PM 40.7833 -74.1333 66° East 131 151 5,500  Level New York TRACON
Mon 01:15:04 PM 40.7833 -74.0833 90° East 129 148 5,500  Level New York TRACON
Mon 01:16:04 PM 40.8000 -74.0333 66° East 129 148 5,500  Level New York TRACON
Mon 01:17:04 PM 40.8000 -74.0000 90° East 130 150 5,500  Level New York TRACON
Mon 01:18:04 PM 40.8167 -73.9500 66° East 135 155 5,500  Level New York TRACON
Mon 01:19:04 PM 40.8167 -73.9000 90° East 127 146 5,500  Level New York TRACON
Mon 01:20:04 PM 40.8333 -73.8500 66° East 130 150 5,500  Level New York TRACON
Mon 01:21:04 PM 40.8500 -73.8167 57° Northeast 128 147 5,500  Level New York TRACON
Mon 01:22:04 PM 40.8500 -73.7667 90° East 132 152 5,500  Level New York TRACON
Mon 01:23:04 PM 40.8667 -73.7167 66° East 132 152 5,500  Level New York TRACON
Mon 01:24:04 PM 40.8833 -73.6667 66° East 135 155 5,500  Level New York TRACON
Mon 01:25:04 PM 40.8833 -73.6167 90° East 136 157 5,500  Level New York TRACON
Mon 01:26:04 PM 40.9000 -73.5833 57° Northeast 135 155 5,500  Level New York TRACON
Mon 01:26:58 PM 40.9000 -73.5333 90° East 133 153 5,500  Level New York TRACON
Mon 01:27:58 PM 40.9167 -73.4833 66° East 133 153 5,500  Level New York TRACON
Mon 01:29:04 PM 40.9333 -73.4333 66° East 133 153 5,500  Level New York TRACON
Mon 01:30:04 PM 40.9333 -73.3833 90° East 134 154 5,500 50 Level New York TRACON
Mon 01:31:04 PM 40.9500 -73.3500 56° Northeast 132 152 5,600 50 Climbing New York TRACON
Mon 01:32:04 PM 40.9333 -73.3000 114° Southeast 139 160 5,600 -50 Level New York TRACON
Mon 01:33:04 PM 40.9333 -73.2500 90° East 143 165 5,500 -50 Descending New York TRACON
Mon 01:34:04 PM 40.9333 -73.2000 90° East 133 153 5,500  Level New York TRACON
Mon 01:35:04 PM 40.9333 -73.1500 90° East 137 158 5,500  Level New York TRACON
Mon 01:36:04 PM 40.9333 -73.1000 90° East 138 159 5,500  Level New York TRACON
Mon 01:37:04 PM 40.9500 -73.0500 66° East 134 154 5,500  Level New York TRACON
Mon 01:38:04 PM 40.9500 -73.0000 90° East 139 160 5,500  Level New York TRACON
Mon 01:39:04 PM 40.9500 -72.9500 90° East 145 167 5,500  Level New York TRACON
Mon 01:40:04 PM 40.9500 -72.9000 90° East 144 166 5,500  Level New York TRACON
Mon 01:41:04 PM 40.9500 -72.8333 90° East 140 161 5,500  Level New York TRACON
Mon 01:42:04 PM 40.9667 -72.7833 66° East 142 163 5,500 -50 Level New York TRACON
Mon 01:43:04 PM 40.9667 -72.7333 90° East 142 163 5,400 50 Descending New York TRACON
Mon 01:44:04 PM 40.9667 -72.6833 90° East 139 160 5,600 50 Climbing New York TRACON
Mon 01:45:04 PM 40.9833 -72.6333 66° East 142 163 5,500 -48 Descending New York TRACON
Mon 01:46:10 PM 41.0000 -72.5833 66° East 143 165 5,500  Level New York TRACON
Mon 01:47:10 PM 41.0000 -72.5333 90° East 146 168 5,500  Level New York TRACON
Mon 01:48:04 PM 41.0000 -72.4833 90° East 142 163 5,500 -37 Level New York TRACON
Mon 01:49:51 PM 41.0125 -72.3933 80° East 174 200 5,400  Descending Boston Center
Mon 01:50:52 PM 41.0208 -72.3492 76° East 128 147 5,500 94 Climbing Boston Center
Mon 01:51:58 PM 41.0289 -72.2997 78° East 130 150 5,600 47 Climbing Boston Center
Mon 01:52:59 PM 41.0353 -72.2475 81° East 131 151 5,600 -50 Level Boston Center
Mon 01:53:59 PM 41.0350 -72.1953 90° East 146 168 5,500 -53 Descending Boston Center
Mon 01:54:53 PM 41.0433 -72.1511 76° East 133 153 5,500  Level Boston Center
Mon 01:55:54 PM 41.0494 -72.1044 80° East 133 153 5,500  Level Boston Center
Mon 01:56:54 PM 41.0556 -72.0547 81° East 137 158 5,500 50 Level Boston Center
Mon 01:57:55 PM 41.0594 -72.0053 84° East 136 157 5,600  Climbing Boston Center
Mon 01:58:56 PM 41.0697 -71.9583 74° East 132 152 5,500 -98 Descending Boston Center

Login

Don't have an account? Register now (free) for customized features, flight alerts, and more!